sensor_id;sensor_type;location;lat;lon;timestamp;P1;durP1;ratioP1;P2;durP2;ratioP2
39442;SDS011;25147;52.142;9.960;2023-09-30T00:01:54;11.90;;;4.07;;
39442;SDS011;25147;52.142;9.960;2023-09-30T00:06:21;11.90;;;4.20;;
39442;SDS011;25147;52.142;9.960;2023-09-30T00:11:25;14.52;;;4.78;;
39442;SDS011;25147;52.142;9.960;2023-09-30T00:14:20;10.75;;;3.95;;
39442;SDS011;25147;52.142;9.960;2023-09-30T00:17:14;13.35;;;4.03;;
39442;SDS011;25147;52.142;9.960;2023-09-30T00:19:45;11.18;;;4.57;;
39442;SDS011;25147;52.142;9.960;2023-09-30T00:22:34;10.30;;;3.88;;
39442;SDS011;25147;52.142;9.960;2023-09-30T00:25:01;10.77;;;4.72;;
39442;SDS011;25147;52.142;9.960;2023-09-30T00:27:28;9.48;;;4.18;;
39442;SDS011;25147;52.142;9.960;2023-09-30T00:29:57;11.32;;;4.35;;
39442;SDS011;25147;52.142;9.960;2023-09-30T00:32:24;8.85;;;4.30;;
39442;SDS011;25147;52.142;9.960;2023-09-30T00:34:51;14.82;;;4.75;;
39442;SDS011;25147;52.142;9.960;2023-09-30T00:37:19;12.10;;;3.90;;
39442;SDS011;25147;52.142;9.960;2023-09-30T00:39:46;10.13;;;3.92;;
39442;SDS011;25147;52.142;9.960;2023-09-30T00:42:13;10.90;;;4.38;;
39442;SDS011;25147;52.142;9.960;2023-09-30T00:44:40;11.02;;;4.25;;
39442;SDS011;25147;52.142;9.960;2023-09-30T00:47:09;11.82;;;4.00;;
39442;SDS011;25147;52.142;9.960;2023-09-30T00:49:36;11.48;;;3.90;;
39442;SDS011;25147;52.142;9.960;2023-09-30T00:52:03;16.42;;;5.05;;
39442;SDS011;25147;52.142;9.960;2023-09-30T00:54:31;9.05;;;3.83;;
39442;SDS011;25147;52.142;9.960;2023-09-30T00:56:57;20.13;;;4.78;;
39442;SDS011;25147;52.142;9.960;2023-09-30T00:59:27;14.77;;;4.70;;
39442;SDS011;25147;52.142;9.960;2023-09-30T01:01:56;12.70;;;4.45;;
39442;SDS011;25147;52.142;9.960;2023-09-30T01:04:29;14.13;;;4.25;;
39442;SDS011;25147;52.142;9.960;2023-09-30T01:06:58;15.18;;;4.95;;
39442;SDS011;25147;52.142;9.960;2023-09-30T01:09:25;12.02;;;4.72;;
39442;SDS011;25147;52.142;9.960;2023-09-30T01:11:53;12.35;;;5.00;;
39442;SDS011;25147;52.142;9.960;2023-09-30T01:14:24;16.90;;;4.85;;
39442;SDS011;25147;52.142;9.960;2023-09-30T01:16:51;13.38;;;4.90;;
39442;SDS011;25147;52.142;9.960;2023-09-30T01:19:21;7.85;;;4.32;;
39442;SDS011;25147;52.142;9.960;2023-09-30T01:21:52;19.42;;;4.85;;
39442;SDS011;25147;52.142;9.960;2023-09-30T01:24:21;11.57;;;4.93;;
39442;SDS011;25147;52.142;9.960;2023-09-30T01:26:49;10.65;;;5.15;;
39442;SDS011;25147;52.142;9.960;2023-09-30T01:29:31;12.07;;;4.93;;
39442;SDS011;25147;52.142;9.960;2023-09-30T01:32:13;13.00;;;5.18;;
39442;SDS011;25147;52.142;9.960;2023-09-30T01:34:43;10.68;;;4.28;;
39442;SDS011;25147;52.142;9.960;2023-09-30T01:37:11;17.35;;;5.65;;
39442;SDS011;25147;52.142;9.960;2023-09-30T01:39:38;9.93;;;3.90;;
39442;SDS011;25147;52.142;9.960;2023-09-30T01:42:06;10.00;;;4.18;;
39442;SDS011;25147;52.142;9.960;2023-09-30T01:44:36;12.98;;;4.55;;
39442;SDS011;25147;52.142;9.960;2023-09-30T01:47:04;10.38;;;4.57;;
39442;SDS011;25147;52.142;9.960;2023-09-30T01:49:31;18.33;;;5.10;;
39442;SDS011;25147;52.142;9.960;2023-09-30T01:52:24;13.15;;;6.05;;
39442;SDS011;25147;52.142;9.960;2023-09-30T01:54:59;12.65;;;5.22;;
39442;SDS011;25147;52.142;9.960;2023-09-30T01:57:31;14.40;;;4.82;;
39442;SDS011;25147;52.142;9.960;2023-09-30T01:59:58;15.63;;;5.10;;
39442;SDS011;25147;52.142;9.960;2023-09-30T02:03:05;14.40;;;4.93;;
39442;SDS011;25147;52.142;9.960;2023-09-30T02:05:40;10.85;;;4.63;;
39442;SDS011;25147;52.142;9.960;2023-09-30T02:08:09;16.10;;;5.00;;
39442;SDS011;25147;52.142;9.960;2023-09-30T02:10:35;15.27;;;4.95;;
39442;SDS011;25147;52.142;9.960;2023-09-30T02:13:02;14.27;;;4.25;;
39442;SDS011;25147;52.142;9.960;2023-09-30T02:15:31;11.27;;;4.63;;
39442;SDS011;25147;52.142;9.960;2023-09-30T02:17:58;9.10;;;4.55;;
39442;SDS011;25147;52.142;9.960;2023-09-30T02:20:25;10.07;;;4.05;;
39442;SDS011;25147;52.142;9.960;2023-09-30T02:22:55;14.38;;;4.80;;
39442;SDS011;25147;52.142;9.960;2023-09-30T02:25:25;10.88;;;4.55;;
39442;SDS011;25147;52.142;9.960;2023-09-30T02:27:52;17.80;;;5.15;;
39442;SDS011;25147;52.142;9.960;2023-09-30T02:30:19;12.82;;;4.55;;
39442;SDS011;25147;52.142;9.960;2023-09-30T02:32:46;16.63;;;5.55;;
39442;SDS011;25147;52.142;9.960;2023-09-30T02:35:13;14.25;;;4.57;;
39442;SDS011;25147;52.142;9.960;2023-09-30T02:37:40;13.88;;;5.00;;
39442;SDS011;25147;52.142;9.960;2023-09-30T02:40:08;12.57;;;5.05;;
39442;SDS011;25147;52.142;9.960;2023-09-30T02:42:37;14.10;;;4.50;;
39442;SDS011;25147;52.142;9.960;2023-09-30T02:45:05;11.20;;;3.80;;
39442;SDS011;25147;52.142;9.960;2023-09-30T02:47:33;13.13;;;5.22;;
39442;SDS011;25147;52.142;9.960;2023-09-30T02:50:01;15.23;;;4.97;;
39442;SDS011;25147;52.142;9.960;2023-09-30T02:52:30;13.68;;;4.45;;
39442;SDS011;25147;52.142;9.960;2023-09-30T02:54:57;18.13;;;5.63;;
39442;SDS011;25147;52.142;9.960;2023-09-30T02:57:24;12.88;;;4.35;;
39442;SDS011;25147;52.142;9.960;2023-09-30T02:59:54;10.68;;;4.45;;
39442;SDS011;25147;52.142;9.960;2023-09-30T03:02:21;11.18;;;4.70;;
39442;SDS011;25147;52.142;9.960;2023-09-30T03:04:49;13.85;;;4.45;;
39442;SDS011;25147;52.142;9.960;2023-09-30T03:07:17;12.65;;;4.25;;
39442;SDS011;25147;52.142;9.960;2023-09-30T03:09:44;13.45;;;4.18;;
39442;SDS011;25147;52.142;9.960;2023-09-30T03:12:12;11.10;;;4.35;;
39442;SDS011;25147;52.142;9.960;2023-09-30T03:14:39;12.75;;;4.10;;
39442;SDS011;25147;52.142;9.960;2023-09-30T03:17:07;14.45;;;4.50;;
39442;SDS011;25147;52.142;9.960;2023-09-30T03:19:36;14.98;;;4.47;;
39442;SDS011;25147;52.142;9.960;2023-09-30T03:22:04;16.67;;;5.10;;
39442;SDS011;25147;52.142;9.960;2023-09-30T03:24:37;16.15;;;5.28;;
39442;SDS011;25147;52.142;9.960;2023-09-30T03:27:04;15.45;;;5.10;;
39442;SDS011;25147;52.142;9.960;2023-09-30T03:29:31;17.02;;;4.63;;
39442;SDS011;25147;52.142;9.960;2023-09-30T03:31:57;12.05;;;4.43;;
39442;SDS011;25147;52.142;9.960;2023-09-30T03:34:25;11.77;;;4.53;;
39442;SDS011;25147;52.142;9.960;2023-09-30T03:36:54;14.02;;;4.40;;
39442;SDS011;25147;52.142;9.960;2023-09-30T03:39:23;13.05;;;4.63;;
39442;SDS011;25147;52.142;9.960;2023-09-30T03:41:53;13.00;;;4.55;;
39442;SDS011;25147;52.142;9.960;2023-09-30T03:44:21;10.48;;;3.80;;
39442;SDS011;25147;52.142;9.960;2023-09-30T03:46:50;14.23;;;4.80;;
39442;SDS011;25147;52.142;9.960;2023-09-30T03:49:17;16.92;;;5.10;;
39442;SDS011;25147;52.142;9.960;2023-09-30T03:51:46;9.85;;;4.47;;
39442;SDS011;25147;52.142;9.960;2023-09-30T03:54:15;16.50;;;5.07;;
39442;SDS011;25147;52.142;9.960;2023-09-30T03:56:43;8.77;;;4.90;;
39442;SDS011;25147;52.142;9.960;2023-09-30T03:59:10;11.63;;;5.10;;
39442;SDS011;25147;52.142;9.960;2023-09-30T04:01:37;16.17;;;4.82;;
39442;SDS011;25147;52.142;9.960;2023-09-30T04:04:05;16.50;;;4.68;;
39442;SDS011;25147;52.142;9.960;2023-09-30T04:06:33;13.20;;;4.57;;
39442;SDS011;25147;52.142;9.960;2023-09-30T04:09:04;13.88;;;4.50;;
39442;SDS011;25147;52.142;9.960;2023-09-30T04:11:35;13.50;;;4.65;;
39442;SDS011;25147;52.142;9.960;2023-09-30T04:14:03;12.10;;;4.55;;
39442;SDS011;25147;52.142;9.960;2023-09-30T04:16:31;13.90;;;4.65;;
39442;SDS011;25147;52.142;9.960;2023-09-30T04:18:58;11.13;;;4.47;;
39442;SDS011;25147;52.142;9.960;2023-09-30T04:21:25;17.48;;;5.43;;
39442;SDS011;25147;52.142;9.960;2023-09-30T04:23:53;13.68;;;4.45;;
39442;SDS011;25147;52.142;9.960;2023-09-30T04:26:22;15.02;;;5.22;;
39442;SDS011;25147;52.142;9.960;2023-09-30T04:28:50;14.43;;;4.95;;
39442;SDS011;25147;52.142;9.960;2023-09-30T04:31:19;12.02;;;4.55;;
39442;SDS011;25147;52.142;9.960;2023-09-30T04:33:47;12.13;;;4.78;;
39442;SDS011;25147;52.142;9.960;2023-09-30T04:36:14;14.43;;;5.03;;
39442;SDS011;25147;52.142;9.960;2023-09-30T04:38:41;15.48;;;5.18;;
39442;SDS011;25147;52.142;9.960;2023-09-30T04:41:08;12.20;;;4.53;;
39442;SDS011;25147;52.142;9.960;2023-09-30T04:43:37;16.38;;;5.47;;
39442;SDS011;25147;52.142;9.960;2023-09-30T04:46:04;18.60;;;6.35;;
39442;SDS011;25147;52.142;9.960;2023-09-30T04:48:32;12.10;;;5.43;;
39442;SDS011;25147;52.142;9.960;2023-09-30T04:50:59;13.57;;;5.00;;
39442;SDS011;25147;52.142;9.960;2023-09-30T04:53:29;13.30;;;4.78;;
39442;SDS011;25147;52.142;9.960;2023-09-30T04:55:56;14.15;;;5.05;;
39442;SDS011;25147;52.142;9.960;2023-09-30T04:58:24;13.95;;;4.47;;
39442;SDS011;25147;52.142;9.960;2023-09-30T05:00:52;13.52;;;4.80;;
39442;SDS011;25147;52.142;9.960;2023-09-30T05:03:19;13.90;;;4.95;;
39442;SDS011;25147;52.142;9.960;2023-09-30T05:05:46;13.48;;;5.15;;
39442;SDS011;25147;52.142;9.960;2023-09-30T05:08:13;11.00;;;4.75;;
39442;SDS011;25147;52.142;9.960;2023-09-30T05:10:40;12.80;;;4.85;;
39442;SDS011;25147;52.142;9.960;2023-09-30T05:13:07;13.00;;;5.22;;
39442;SDS011;25147;52.142;9.960;2023-09-30T05:15:34;10.75;;;4.57;;
39442;SDS011;25147;52.142;9.960;2023-09-30T05:18:02;12.73;;;4.28;;
39442;SDS011;25147;52.142;9.960;2023-09-30T05:20:30;13.27;;;4.90;;
39442;SDS011;25147;52.142;9.960;2023-09-30T05:22:57;11.00;;;4.18;;
39442;SDS011;25147;52.142;9.960;2023-09-30T05:25:24;16.20;;;5.13;;
39442;SDS011;25147;52.142;9.960;2023-09-30T05:27:51;17.42;;;5.45;;
39442;SDS011;25147;52.142;9.960;2023-09-30T05:30:19;10.73;;;4.30;;
39442;SDS011;25147;52.142;9.960;2023-09-30T05:32:46;18.10;;;5.03;;
39442;SDS011;25147;52.142;9.960;2023-09-30T05:35:14;14.23;;;5.03;;
39442;SDS011;25147;52.142;9.960;2023-09-30T05:37:42;15.13;;;4.65;;
39442;SDS011;25147;52.142;9.960;2023-09-30T05:40:10;11.40;;;4.90;;
39442;SDS011;25147;52.142;9.960;2023-09-30T05:42:45;11.90;;;5.00;;
39442;SDS011;25147;52.142;9.960;2023-09-30T05:45:12;11.90;;;4.72;;
39442;SDS011;25147;52.142;9.960;2023-09-30T05:47:39;14.35;;;4.97;;
39442;SDS011;25147;52.142;9.960;2023-09-30T05:50:06;15.07;;;4.93;;
39442;SDS011;25147;52.142;9.960;2023-09-30T05:52:36;16.65;;;4.90;;
39442;SDS011;25147;52.142;9.960;2023-09-30T05:55:04;12.98;;;4.18;;
39442;SDS011;25147;52.142;9.960;2023-09-30T05:57:32;12.65;;;4.47;;
39442;SDS011;25147;52.142;9.960;2023-09-30T05:59:59;14.63;;;5.35;;
39442;SDS011;25147;52.142;9.960;2023-09-30T06:02:26;10.73;;;3.97;;
39442;SDS011;25147;52.142;9.960;2023-09-30T06:04:54;12.90;;;4.88;;
39442;SDS011;25147;52.142;9.960;2023-09-30T06:07:24;17.23;;;4.75;;
39442;SDS011;25147;52.142;9.960;2023-09-30T06:09:52;14.77;;;4.90;;
39442;SDS011;25147;52.142;9.960;2023-09-30T06:12:19;15.43;;;4.85;;
39442;SDS011;25147;52.142;9.960;2023-09-30T06:14:46;16.63;;;4.70;;
39442;SDS011;25147;52.142;9.960;2023-09-30T06:17:13;10.73;;;4.22;;
39442;SDS011;25147;52.142;9.960;2023-09-30T06:19:40;14.60;;;4.78;;
39442;SDS011;25147;52.142;9.960;2023-09-30T06:22:06;12.23;;;4.57;;
39442;SDS011;25147;52.142;9.960;2023-09-30T06:24:33;15.50;;;4.70;;
39442;SDS011;25147;52.142;9.960;2023-09-30T06:27:02;15.13;;;4.85;;
39442;SDS011;25147;52.142;9.960;2023-09-30T06:29:29;11.93;;;4.70;;
39442;SDS011;25147;52.142;9.960;2023-09-30T06:31:56;11.25;;;4.28;;
39442;SDS011;25147;52.142;9.960;2023-09-30T06:34:23;19.85;;;5.40;;
39442;SDS011;25147;52.142;9.960;2023-09-30T06:36:50;10.38;;;4.28;;
39442;SDS011;25147;52.142;9.960;2023-09-30T06:39:18;14.90;;;4.90;;
39442;SDS011;25147;52.142;9.960;2023-09-30T06:41:47;15.65;;;5.28;;
39442;SDS011;25147;52.142;9.960;2023-09-30T06:44:15;11.95;;;4.13;;
39442;SDS011;25147;52.142;9.960;2023-09-30T06:46:42;14.32;;;4.85;;
39442;SDS011;25147;52.142;9.960;2023-09-30T06:49:08;12.93;;;5.00;;
39442;SDS011;25147;52.142;9.960;2023-09-30T06:51:35;16.92;;;4.65;;
39442;SDS011;25147;52.142;9.960;2023-09-30T06:54:04;12.98;;;4.72;;
39442;SDS011;25147;52.142;9.960;2023-09-30T06:56:31;15.32;;;4.70;;
39442;SDS011;25147;52.142;9.960;2023-09-30T06:58:58;14.73;;;4.78;;
39442;SDS011;25147;52.142;9.960;2023-09-30T07:01:27;15.18;;;5.07;;
39442;SDS011;25147;52.142;9.960;2023-09-30T07:03:54;14.98;;;4.65;;
39442;SDS011;25147;52.142;9.960;2023-09-30T07:06:30;13.20;;;4.82;;
39442;SDS011;25147;52.142;9.960;2023-09-30T07:08:57;12.35;;;4.60;;
39442;SDS011;25147;52.142;9.960;2023-09-30T07:11:27;11.15;;;3.60;;
39442;SDS011;25147;52.142;9.960;2023-09-30T07:13:54;13.30;;;4.32;;
39442;SDS011;25147;52.142;9.960;2023-09-30T07:16:21;11.85;;;4.70;;
39442;SDS011;25147;52.142;9.960;2023-09-30T07:18:50;13.85;;;4.25;;
39442;SDS011;25147;52.142;9.960;2023-09-30T07:21:16;18.85;;;4.75;;
39442;SDS011;25147;52.142;9.960;2023-09-30T07:23:43;18.13;;;4.40;;
39442;SDS011;25147;52.142;9.960;2023-09-30T07:26:10;12.93;;;4.38;;
39442;SDS011;25147;52.142;9.960;2023-09-30T07:28:37;11.90;;;4.47;;
39442;SDS011;25147;52.142;9.960;2023-09-30T07:31:03;13.90;;;4.38;;
39442;SDS011;25147;52.142;9.960;2023-09-30T07:33:30;13.02;;;4.18;;
39442;SDS011;25147;52.142;9.960;2023-09-30T07:35:58;14.23;;;4.43;;
39442;SDS011;25147;52.142;9.960;2023-09-30T07:38:25;13.63;;;4.22;;
39442;SDS011;25147;52.142;9.960;2023-09-30T07:40:52;16.30;;;4.80;;
39442;SDS011;25147;52.142;9.960;2023-09-30T07:43:19;16.77;;;4.38;;
39442;SDS011;25147;52.142;9.960;2023-09-30T07:45:45;15.02;;;4.28;;
39442;SDS011;25147;52.142;9.960;2023-09-30T07:48:12;14.10;;;4.78;;
39442;SDS011;25147;52.142;9.960;2023-09-30T07:50:39;11.60;;;4.10;;
39442;SDS011;25147;52.142;9.960;2023-09-30T07:53:09;14.65;;;4.57;;
39442;SDS011;25147;52.142;9.960;2023-09-30T07:55:37;11.77;;;4.15;;
39442;SDS011;25147;52.142;9.960;2023-09-30T07:58:04;12.32;;;4.47;;
39442;SDS011;25147;52.142;9.960;2023-09-30T08:00:33;14.45;;;4.00;;
39442;SDS011;25147;52.142;9.960;2023-09-30T08:03:00;17.70;;;5.07;;
39442;SDS011;25147;52.142;9.960;2023-09-30T08:05:26;17.02;;;4.53;;
39442;SDS011;25147;52.142;9.960;2023-09-30T08:07:53;14.55;;;4.68;;
39442;SDS011;25147;52.142;9.960;2023-09-30T08:10:21;18.17;;;4.95;;
39442;SDS011;25147;52.142;9.960;2023-09-30T08:12:48;10.45;;;4.38;;
39442;SDS011;25147;52.142;9.960;2023-09-30T08:15:17;13.23;;;4.75;;
39442;SDS011;25147;52.142;9.960;2023-09-30T08:17:44;12.27;;;3.95;;
39442;SDS011;25147;52.142;9.960;2023-09-30T08:20:10;15.63;;;4.68;;
39442;SDS011;25147;52.142;9.960;2023-09-30T08:22:41;11.40;;;3.95;;
39442;SDS011;25147;52.142;9.960;2023-09-30T08:25:08;14.02;;;4.43;;
39442;SDS011;25147;52.142;9.960;2023-09-30T08:27:39;14.85;;;4.32;;
39442;SDS011;25147;52.142;9.960;2023-09-30T08:30:08;9.57;;;4.00;;
39442;SDS011;25147;52.142;9.960;2023-09-30T08:32:37;9.70;;;3.60;;
39442;SDS011;25147;52.142;9.960;2023-09-30T08:35:05;12.95;;;4.18;;
39442;SDS011;25147;52.142;9.960;2023-09-30T08:37:33;10.88;;;4.05;;
39442;SDS011;25147;52.142;9.960;2023-09-30T08:40:00;11.40;;;4.50;;
39442;SDS011;25147;52.142;9.960;2023-09-30T08:42:27;11.43;;;4.47;;
39442;SDS011;25147;52.142;9.960;2023-09-30T08:44:59;11.10;;;4.38;;
39442;SDS011;25147;52.142;9.960;2023-09-30T08:47:26;16.17;;;4.68;;
39442;SDS011;25147;52.142;9.960;2023-09-30T08:49:53;10.75;;;3.80;;
39442;SDS011;25147;52.142;9.960;2023-09-30T08:52:23;13.10;;;4.78;;
39442;SDS011;25147;52.142;9.960;2023-09-30T08:54:51;13.50;;;4.15;;
39442;SDS011;25147;52.142;9.960;2023-09-30T08:57:18;13.93;;;4.28;;
39442;SDS011;25147;52.142;9.960;2023-09-30T08:59:45;9.25;;;4.57;;
39442;SDS011;25147;52.142;9.960;2023-09-30T09:02:16;12.25;;;4.68;;
39442;SDS011;25147;52.142;9.960;2023-09-30T09:04:45;8.55;;;4.15;;
39442;SDS011;25147;52.142;9.960;2023-09-30T09:07:14;10.98;;;4.05;;
39442;SDS011;25147;52.142;9.960;2023-09-30T09:09:41;13.52;;;4.28;;
39442;SDS011;25147;52.142;9.960;2023-09-30T09:12:29;12.90;;;4.35;;
39442;SDS011;25147;52.142;9.960;2023-09-30T09:14:55;10.00;;;3.90;;
39442;SDS011;25147;52.142;9.960;2023-09-30T09:17:23;13.27;;;4.50;;
39442;SDS011;25147;52.142;9.960;2023-09-30T09:20:06;12.00;;;5.03;;
39442;SDS011;25147;52.142;9.960;2023-09-30T09:22:38;11.57;;;4.22;;
39442;SDS011;25147;52.142;9.960;2023-09-30T09:25:05;10.38;;;4.15;;
39442;SDS011;25147;52.142;9.960;2023-09-30T09:27:33;12.45;;;4.50;;
39442;SDS011;25147;52.142;9.960;2023-09-30T09:30:13;9.20;;;3.70;;
39442;SDS011;25147;52.142;9.960;2023-09-30T09:32:52;10.52;;;4.00;;
39442;SDS011;25147;52.142;9.960;2023-09-30T09:35:26;12.75;;;4.43;;
39442;SDS011;25147;52.142;9.960;2023-09-30T09:37:56;12.65;;;3.97;;
39442;SDS011;25147;52.142;9.960;2023-09-30T09:40:25;14.10;;;4.32;;
39442;SDS011;25147;52.142;9.960;2023-09-30T09:42:53;13.48;;;3.70;;
39442;SDS011;25147;52.142;9.960;2023-09-30T09:45:21;10.52;;;4.10;;
39442;SDS011;25147;52.142;9.960;2023-09-30T09:47:49;12.80;;;4.20;;
39442;SDS011;25147;52.142;9.960;2023-09-30T09:50:18;10.27;;;3.80;;
39442;SDS011;25147;52.142;9.960;2023-09-30T09:52:47;8.80;;;4.05;;
39442;SDS011;25147;52.142;9.960;2023-09-30T09:55:16;13.23;;;3.97;;
39442;SDS011;25147;52.142;9.960;2023-09-30T09:57:43;11.77;;;4.35;;
39442;SDS011;25147;52.142;9.960;2023-09-30T10:00:11;8.82;;;3.38;;
39442;SDS011;25147;52.142;9.960;2023-09-30T10:02:39;9.30;;;3.65;;
39442;SDS011;25147;52.142;9.960;2023-09-30T10:05:07;10.05;;;3.85;;
39442;SDS011;25147;52.142;9.960;2023-09-30T10:07:39;8.77;;;3.63;;
39442;SDS011;25147;52.142;9.960;2023-09-30T10:10:11;13.88;;;3.90;;
39442;SDS011;25147;52.142;9.960;2023-09-30T10:12:41;7.38;;;3.60;;
39442;SDS011;25147;52.142;9.960;2023-09-30T10:18:01;8.02;;;3.58;;
39442;SDS011;25147;52.142;9.960;2023-09-30T10:20:30;9.05;;;4.03;;
39442;SDS011;25147;52.142;9.960;2023-09-30T10:25:52;12.48;;;3.42;;
39442;SDS011;25147;52.142;9.960;2023-09-30T10:28:32;7.80;;;3.40;;
39442;SDS011;25147;52.142;9.960;2023-09-30T10:31:10;9.10;;;3.70;;
39442;SDS011;25147;52.142;9.960;2023-09-30T10:36:57;8.07;;;3.15;;
39442;SDS011;25147;52.142;9.960;2023-09-30T10:51:09;6.10;;;3.08;;
39442;SDS011;25147;52.142;9.960;2023-09-30T10:53:44;5.13;;;2.00;;
39442;SDS011;25147;52.142;9.960;2023-09-30T10:56:15;6.80;;;2.47;;
39442;SDS011;25147;52.142;9.960;2023-09-30T10:58:43;4.72;;;2.45;;
39442;SDS011;25147;52.142;9.960;2023-09-30T11:01:10;7.80;;;2.67;;
39442;SDS011;25147;52.142;9.960;2023-09-30T11:03:41;4.40;;;2.22;;
39442;SDS011;25147;52.142;9.960;2023-09-30T11:06:10;9.77;;;3.03;;
39442;SDS011;25147;52.142;9.960;2023-09-30T11:08:40;9.80;;;3.00;;
39442;SDS011;25147;52.142;9.960;2023-09-30T11:11:11;6.20;;;2.67;;
39442;SDS011;25147;52.142;9.960;2023-09-30T11:13:43;7.18;;;2.72;;
39442;SDS011;25147;52.142;9.960;2023-09-30T11:16:10;8.85;;;2.67;;
39442;SDS011;25147;52.142;9.960;2023-09-30T11:21:22;7.65;;;2.65;;
39442;SDS011;25147;52.142;9.960;2023-09-30T11:23:50;10.68;;;3.05;;
39442;SDS011;25147;52.142;9.960;2023-09-30T11:26:22;9.20;;;2.72;;
39442;SDS011;25147;52.142;9.960;2023-09-30T11:29:04;5.25;;;2.30;;
39442;SDS011;25147;52.142;9.960;2023-09-30T11:31:32;4.38;;;2.05;;
39442;SDS011;25147;52.142;9.960;2023-09-30T11:34:00;6.63;;;2.63;;
39442;SDS011;25147;52.142;9.960;2023-09-30T11:36:29;7.40;;;2.60;;
39442;SDS011;25147;52.142;9.960;2023-09-30T11:38:56;4.65;;;2.55;;
39442;SDS011;25147;52.142;9.960;2023-09-30T11:41:31;4.22;;;2.38;;
39442;SDS011;25147;52.142;9.960;2023-09-30T11:44:01;7.93;;;2.70;;
39442;SDS011;25147;52.142;9.960;2023-09-30T11:46:47;4.25;;;1.77;;
39442;SDS011;25147;52.142;9.960;2023-09-30T11:49:27;2.25;;;1.30;;
39442;SDS011;25147;52.142;9.960;2023-09-30T11:52:03;7.32;;;2.05;;
39442;SDS011;25147;52.142;9.960;2023-09-30T11:54:32;3.67;;;1.60;;
39442;SDS011;25147;52.142;9.960;2023-09-30T11:57:03;5.97;;;2.08;;
39442;SDS011;25147;52.142;9.960;2023-09-30T11:59:31;5.65;;;2.03;;
39442;SDS011;25147;52.142;9.960;2023-09-30T12:01:58;5.13;;;2.53;;
39442;SDS011;25147;52.142;9.960;2023-09-30T12:04:25;4.65;;;2.08;;
39442;SDS011;25147;52.142;9.960;2023-09-30T12:06:52;4.07;;;2.28;;
39442;SDS011;25147;52.142;9.960;2023-09-30T12:09:18;4.63;;;1.80;;
39442;SDS011;25147;52.142;9.960;2023-09-30T12:11:50;5.82;;;2.00;;
39442;SDS011;25147;52.142;9.960;2023-09-30T12:14:19;4.07;;;1.73;;
39442;SDS011;25147;52.142;9.960;2023-09-30T12:16:48;4.53;;;1.52;;
39442;SDS011;25147;52.142;9.960;2023-09-30T12:19:15;4.47;;;1.80;;
39442;SDS011;25147;52.142;9.960;2023-09-30T12:21:44;6.22;;;2.05;;
39442;SDS011;25147;52.142;9.960;2023-09-30T12:24:13;6.30;;;2.13;;
39442;SDS011;25147;52.142;9.960;2023-09-30T12:26:42;7.93;;;2.35;;
39442;SDS011;25147;52.142;9.960;2023-09-30T12:29:13;2.95;;;1.70;;
39442;SDS011;25147;52.142;9.960;2023-09-30T12:31:41;3.95;;;1.85;;
39442;SDS011;25147;52.142;9.960;2023-09-30T12:34:10;8.15;;;2.30;;
39442;SDS011;25147;52.142;9.960;2023-09-30T12:36:37;6.15;;;2.17;;
39442;SDS011;25147;52.142;9.960;2023-09-30T12:39:04;9.35;;;2.40;;
39442;SDS011;25147;52.142;9.960;2023-09-30T12:41:36;6.20;;;2.10;;
39442;SDS011;25147;52.142;9.960;2023-09-30T12:44:03;5.68;;;2.10;;
39442;SDS011;25147;52.142;9.960;2023-09-30T12:46:36;5.63;;;1.88;;
39442;SDS011;25147;52.142;9.960;2023-09-30T12:49:04;3.80;;;2.15;;
39442;SDS011;25147;52.142;9.960;2023-09-30T12:51:33;7.25;;;2.42;;
39442;SDS011;25147;52.142;9.960;2023-09-30T12:54:01;4.25;;;2.13;;
39442;SDS011;25147;52.142;9.960;2023-09-30T12:56:28;3.58;;;2.10;;
39442;SDS011;25147;52.142;9.960;2023-09-30T12:58:56;7.25;;;2.47;;
39442;SDS011;25147;52.142;9.960;2023-09-30T13:01:23;5.43;;;1.98;;
39442;SDS011;25147;52.142;9.960;2023-09-30T13:03:50;5.95;;;2.03;;
39442;SDS011;25147;52.142;9.960;2023-09-30T13:06:18;3.83;;;2.00;;
39442;SDS011;25147;52.142;9.960;2023-09-30T13:08:47;4.45;;;2.38;;
39442;SDS011;25147;52.142;9.960;2023-09-30T13:11:14;4.47;;;1.98;;
39442;SDS011;25147;52.142;9.960;2023-09-30T13:13:41;5.45;;;2.35;;
39442;SDS011;25147;52.142;9.960;2023-09-30T13:16:09;6.53;;;2.63;;
39442;SDS011;25147;52.142;9.960;2023-09-30T13:18:37;5.05;;;2.17;;
39442;SDS011;25147;52.142;9.960;2023-09-30T13:21:04;7.18;;;2.88;;
39442;SDS011;25147;52.142;9.960;2023-09-30T13:23:31;6.75;;;2.63;;
39442;SDS011;25147;52.142;9.960;2023-09-30T13:25:59;9.90;;;2.88;;
39442;SDS011;25147;52.142;9.960;2023-09-30T13:28:26;4.15;;;2.33;;
39442;SDS011;25147;52.142;9.960;2023-09-30T13:30:54;7.03;;;2.65;;
39442;SDS011;25147;52.142;9.960;2023-09-30T13:33:21;6.35;;;2.58;;
39442;SDS011;25147;52.142;9.960;2023-09-30T13:35:48;6.75;;;2.55;;
39442;SDS011;25147;52.142;9.960;2023-09-30T13:38:14;6.70;;;2.10;;
39442;SDS011;25147;52.142;9.960;2023-09-30T13:40:42;4.13;;;2.03;;
39442;SDS011;25147;52.142;9.960;2023-09-30T13:43:10;5.15;;;2.50;;
39442;SDS011;25147;52.142;9.960;2023-09-30T13:45:37;6.45;;;2.40;;
39442;SDS011;25147;52.142;9.960;2023-09-30T13:48:05;7.60;;;2.60;;
39442;SDS011;25147;52.142;9.960;2023-09-30T13:50:32;8.32;;;2.38;;
39442;SDS011;25147;52.142;9.960;2023-09-30T13:52:59;5.22;;;2.38;;
39442;SDS011;25147;52.142;9.960;2023-09-30T13:55:27;9.20;;;2.75;;
39442;SDS011;25147;52.142;9.960;2023-09-30T13:57:54;6.32;;;2.28;;
39442;SDS011;25147;52.142;9.960;2023-09-30T14:00:22;5.95;;;2.25;;
39442;SDS011;25147;52.142;9.960;2023-09-30T14:02:49;7.05;;;2.40;;
39442;SDS011;25147;52.142;9.960;2023-09-30T14:05:16;5.20;;;2.25;;
39442;SDS011;25147;52.142;9.960;2023-09-30T14:07:45;6.90;;;2.42;;
39442;SDS011;25147;52.142;9.960;2023-09-30T14:10:12;5.55;;;2.50;;
39442;SDS011;25147;52.142;9.960;2023-09-30T14:12:38;3.67;;;2.28;;
39442;SDS011;25147;52.142;9.960;2023-09-30T14:15:06;4.88;;;2.03;;
39442;SDS011;25147;52.142;9.960;2023-09-30T14:17:36;6.68;;;2.38;;
39442;SDS011;25147;52.142;9.960;2023-09-30T14:20:04;5.90;;;2.47;;
39442;SDS011;25147;52.142;9.960;2023-09-30T14:22:34;4.85;;;2.15;;
39442;SDS011;25147;52.142;9.960;2023-09-30T14:25:01;5.95;;;2.45;;
39442;SDS011;25147;52.142;9.960;2023-09-30T14:27:29;5.97;;;2.63;;
39442;SDS011;25147;52.142;9.960;2023-09-30T14:29:55;5.13;;;2.50;;
39442;SDS011;25147;52.142;9.960;2023-09-30T14:32:23;4.75;;;2.40;;
39442;SDS011;25147;52.142;9.960;2023-09-30T14:34:54;5.65;;;2.35;;
39442;SDS011;25147;52.142;9.960;2023-09-30T14:37:21;6.03;;;3.05;;
39442;SDS011;25147;52.142;9.960;2023-09-30T14:39:47;5.50;;;2.50;;
39442;SDS011;25147;52.142;9.960;2023-09-30T14:42:14;5.45;;;2.28;;
39442;SDS011;25147;52.142;9.960;2023-09-30T14:44:41;5.13;;;2.08;;
39442;SDS011;25147;52.142;9.960;2023-09-30T14:47:11;4.38;;;2.15;;
39442;SDS011;25147;52.142;9.960;2023-09-30T14:49:38;10.23;;;2.78;;
39442;SDS011;25147;52.142;9.960;2023-09-30T14:52:06;5.35;;;2.20;;
39442;SDS011;25147;52.142;9.960;2023-09-30T14:54:34;3.95;;;2.13;;
39442;SDS011;25147;52.142;9.960;2023-09-30T14:57:02;4.03;;;2.10;;
39442;SDS011;25147;52.142;9.960;2023-09-30T14:59:32;5.55;;;2.58;;
39442;SDS011;25147;52.142;9.960;2023-09-30T15:01:59;6.13;;;2.50;;
39442;SDS011;25147;52.142;9.960;2023-09-30T15:04:26;5.57;;;2.10;;
39442;SDS011;25147;52.142;9.960;2023-09-30T15:06:53;4.05;;;2.30;;
39442;SDS011;25147;52.142;9.960;2023-09-30T15:09:21;4.13;;;2.28;;
39442;SDS011;25147;52.142;9.960;2023-09-30T15:11:48;4.50;;;2.33;;
39442;SDS011;25147;52.142;9.960;2023-09-30T15:14:15;4.72;;;2.15;;
39442;SDS011;25147;52.142;9.960;2023-09-30T15:16:41;6.05;;;2.30;;